Latest Coastal Weather Observations for Bunbury

IDW60701

Issued at 10:35 am WST Friday 21 November 2014 (issued every 10 minutes, with the page automatically refreshed every 10 minutes)

About coastal observations | Map of coastal stations | Coastal observations for WA | Marine services | Other Formats
Station Details ID: 009965 Name: BUNBURY Lat: -33.36 Lon: 115.64 Height: 5.2 m
Data from the previous 72 hours. | See also: Recent months at Bunbury
Date/Time
WST
Temp

°C
Wind Pressure Rain
since 9am
mm
Weather Cloud Vis
km
Sea
Height
m
Swell
Dir
 
Speed
knots
Gust
knots
hPa Trend Height
m
Period
s
Dir
21/10:30am 20.2 W 12 18 1008.7 - 0.0 - - - - - - -
21/10:00am 20.2 W 10 18 1008.9 - 0.0 - - - - - - -
21/09:30am 19.4 W 11 14 1008.7 - 0.0 - - - - - - -
21/09:00am 19.4 W 11 18 1012.4 - 1.2 - - - - - - -
21/08:30am 18.9 W 11 17 1008.8 - 1.2 - - - - - - -
21/08:00am 19.0 W 10 15 1012.9 - 1.2 - - - - - - -
21/07:30am 17.8 W 11 17 1011.3 - 1.2 - - - - - - -
21/07:00am 17.8 W 9 14 1008.5 - 1.2 - - - - - - -
21/06:30am 17.8 W 10 17 1008.3 - 1.2 - - - - - - -
21/06:00am 17.3 W 10 16 1011.0 - 1.2 - - - - - - -
21/05:30am 17.0 W 9 15 1008.0 - 1.2 - - - - - - -
21/05:00am 17.3 WSW 9 15 1007.8 - 1.2 - - - - - - -
21/04:30am 17.5 WSW 10 17 1007.6 - 1.2 - - - - - - -
21/04:00am 17.8 W 11 16 1007.4 - 1.2 - - - - - - -
21/03:30am 17.6 W 11 16 1007.3 - 1.2 - - - - - - -
21/03:00am 17.5 W 10 17 1007.3 - 1.2 - - - - - - -
21/02:30am 17.4 W 13 17 1007.2 - 1.2 - - - - - - -
21/02:00am 16.1 WNW 9 16 1007.2 - 1.2 - - - - - - -
21/01:30am 17.0 WNW 14 23 1010.2 - 0.0 - - - - - - -
21/01:00am 18.6 WNW 10 15 1007.5 - 0.0 - - - - - - -
21/12:30am 18.6 W 11 19 1010.9 - 0.0 - - - - - - -
21/12:00am 18.8 WNW 13 18 1011.8 - 0.0 - - - - - - -
 
Date/Time
WST
Temp

°C
Wind Pressure Rain
since 9am
mm
Weather Cloud Vis
km
Sea
Height
m
Swell
Dir
 
Speed
knots
Gust
knots
hPa Trend Height
m
Period
s
Dir
20/11:30pm 18.7 WNW 12 18 1008.6 - 0.0 - - - - - - -
20/11:00pm 18.5 WNW 12 18 1008.9 - 0.0 - - - - - - -
20/10:30pm 18.6 WNW 11 16 1011.9 - 0.0 - - - - - - -
20/10:00pm 18.4 WNW 10 15 1009.1 - 0.0 - - - - - - -
20/09:30pm 18.5 WNW 10 15 1010.3 - 0.0 - - - - - - -
20/09:00pm 18.2 WNW 9 13 1009.0 - 0.0 - - - - - - -
20/08:30pm 18.4 W 9 16 1008.7 - 0.0 - - - - - - -
20/08:00pm 18.5 WNW 11 16 1008.4 - 0.0 - - - - - - -
20/07:30pm 18.9 WNW 12 18 1010.1 - 0.0 - - - - - - -
20/07:00pm 18.8 W 11 17 1007.9 - 0.0 - - - - - - -
20/06:30pm 19.1 W 11 16 1007.6 - 0.0 - - - - - - -
20/06:00pm 19.7 WNW 12 20 1008.4 - 0.0 - - - - - - -
20/05:30pm 19.4 W 12 17 1006.5 - 0.0 - - - - - - -
20/05:00pm 20.0 WNW 13 19 1006.3 - 0.0 - - - - - - -
20/04:30pm 20.5 WNW 12 18 1006.4 - 0.0 - - - - - - -
20/04:00pm 20.6 WNW 12 18 1006.6 - 0.0 - - - - - - -
20/03:30pm 21.1 WNW 14 22 1006.4 - 0.0 - - - - - - -
20/03:00pm 21.2 W 12 18 1009.2 - 0.0 - - - - - - -
20/02:30pm 21.1 WNW 13 20 1007.1 - 0.0 - - - - - - -
20/02:00pm 20.9 W 13 20 1007.5 - 0.0 - - - - - - -
20/01:30pm 22.2 WNW 12 19 1007.9 - 0.0 - - - - - - -
20/01:00pm 21.2 WNW 11 15 1008.0 - 0.0 - - - - - - -
20/12:30pm 19.8 WNW 14 20 1008.3 - 0.0 - - - - - - -
20/12:00pm 21.1 WNW 13 18 1010.9 - 0.0 - - - - - - -
20/11:30am 21.5 W 13 20 1009.0 - 0.0 - - - - - - -
20/11:00am 21.5 W 14 20 1009.4 - 0.0 - - - - - - -
20/10:30am 20.7 W 13 21 1009.9 - 0.0 - - - - - - -
20/10:00am 20.3 W 14 21 1010.4 - 0.0 - - - - - - -
20/09:30am 20.1 W 13 22 1010.7 - 0.0 - - - - - - -
20/09:00am 19.5 W 13 21 1014.8 - 2.4 Recent precip. - - - - - -
20/08:30am 19.6 WNW 12 17 1010.9 - 2.4 - - - - - - -
20/08:00am 17.3 W 8 13 1011.3 - 1.2 - - - - - - -
20/07:30am 19.8 NW 13 18 1014.4 - 0.0 - - - - - - -
20/07:00am 20.1 NW 12 18 1011.7 - 0.0 - - - - - - -
20/06:30am 19.0 NW 10 18 1011.8 - 0.0 - - - - - - -
20/06:00am 18.7 NW 10 16 1011.6 - 0.0 - - - - - - -
20/05:30am 18.5 NW 9 14 1011.8 - 0.0 - - - - - - -
20/05:00am 18.3 NNW 9 15 1011.7 - 0.0 - - - - - - -
20/04:30am 16.6 N 7 11 1011.0 - 0.0 - - - - - - -
20/04:00am 16.5 N 6 11 1012.3 - 0.0 - - - - - - -
20/03:30am 15.7 NNE 4 6 1011.3 - 0.0 - - - - - - -
20/03:00am 15.7 NE 5 7 1011.3 - 0.0 - - - - - - -
20/02:30am 15.8 NNE 4 6 1012.6 - 0.0 - - - - - - -
20/02:00am 17.1 NNW 5 8 1012.9 - 0.0 - - - - - - -
20/01:30am 17.3 NNW 6 8 1012.9 - 0.0 - - - - - - -
20/01:00am 17.2 NNW 5 8 1013.3 - 0.0 - - - - - - -
20/12:30am 17.3 NNW 5 9 1014.8 - 0.0 - - - - - - -
20/12:00am 17.8 N 6 9 1014.3 - 0.0 - - - - - - -
 
Date/Time
WST
Temp

°C
Wind Pressure Rain
since 9am
mm
Weather Cloud Vis
km
Sea
Height
m
Swell
Dir
 
Speed
knots
Gust
knots
hPa Trend Height
m
Period
s
Dir
19/11:30pm 17.4 NNW 4 7 1014.5 - 0.0 - - - - - - -
19/11:00pm 16.7 N 3 5 1014.6 - 0.0 - - - - - - -
19/10:30pm 16.7 N 4 6 1016.2 - 0.0 - - - - - - -
19/10:00pm 17.3 NW 3 5 1014.7 - 0.0 - - - - - - -
19/09:30pm 16.5 WNW 2 4 1015.2 - 0.0 - - - - - - -
19/09:00pm 16.5 WNW 4 6 1015.1 - 0.0 - - - - - - -
19/08:30pm 16.5 WNW 2 4 1015.0 - 0.0 - - - - - - -
19/08:00pm 16.7 W 2 3 1014.8 - 0.0 - - - - - - -
19/07:30pm 17.3 W 4 5 1015.2 - 0.0 - - - - - - -
19/07:00pm 17.5 W 4 6 1014.4 - 0.0 - - - - - - -
19/06:30pm 18.5 W 5 8 1014.5 - 0.0 - - - - - - -
19/06:00pm 18.6 W 7 11 1014.4 - 0.0 - - - - - - -
19/05:30pm 19.2 W 9 12 1013.9 - 0.0 - - - - - - -
19/05:00pm 19.4 W 9 13 1013.2 - 0.0 - - - - - - -
19/04:30pm 19.8 W 10 16 1013.1 - 0.0 - - - - - - -
19/04:00pm 20.5 W 11 16 1013.1 - 0.0 - - - - - - -
19/03:30pm 20.5 W 10 14 1010.9 - 0.0 - - - - - - -
19/03:00pm 20.9 W 8 12 1012.7 - 0.0 - - - - - - -
19/02:30pm 20.6 W 10 14 1013.0 - 0.0 - - - - - - -
19/02:00pm 21.1 W 8 10 1013.2 - 0.0 - - - - - - -
19/01:30pm 21.1 W 10 15 1013.1 - 0.0 - - - - - - -
19/01:00pm 20.4 W 10 14 1012.9 - 0.0 - - - - - - -
19/12:30pm 21.1 W 9 14 1012.7 - 0.0 - - - - - - -
19/12:00pm 20.7 WSW 11 13 1013.1 - 0.0 - - - - - - -
19/11:30am 20.7 WNW 9 14 1013.2 - 0.0 - - - - - - -
19/11:00am 20.0 W 8 11 1013.4 - 0.0 - - - - - - -
19/10:30am 19.7 W 8 12 1014.9 - 0.0 - - - - - - -
19/10:00am 19.5 W 8 12 1013.7 - 0.0 - - - - - - -
19/09:30am 19.5 W 8 13 1013.6 - 0.0 - - - - - - -
19/09:00am 19.7 W 5 8 1015.7 - 0.0 - - - - - - -
19/08:30am 18.6 SW 1 3 1013.1 - 0.0 - - - - - - -
19/08:00am 18.7 E 2 5 1015.1 - 0.0 - - - - - - -
19/07:30am 17.7 ESE 3 4 1012.6 - 0.0 - - - - - - -
19/07:00am 16.5 ESE 3 5 1012.5 - 0.0 - - - - - - -
19/06:30am 14.7 ESE 1 2 1012.3 - 0.0 - - - - - - -
19/06:00am 11.6 CALM 0 0 1012.3 - 0.0 - - - - - - -
19/05:30am 10.1 CALM 0 0 1011.7 - 0.0 - - - - - - -
19/05:00am 10.1 CALM 0 0 1011.6 - 0.0 - - - - - - -
19/04:30am 10.5 SE 2 2 1011.0 - 0.0 - - - - - - -
19/04:00am 11.1 ESE 2 3 1010.8 - 0.0 - - - - - - -
19/03:30am 10.2 SE 1 2 1010.7 - 0.0 - - - - - - -
19/03:00am 11.7 S 2 2 1010.8 - 0.0 - - - - - - -
19/02:30am 12.8 SSW 3 4 1010.3 - 0.0 - - - - - - -
19/02:00am 13.5 S 2 3 1010.2 - 0.0 - - - - - - -
19/01:30am 13.5 SSW 1 2 1013.0 - 0.0 - - - - - - -
19/01:00am 14.1 S 3 4 1010.4 - 0.0 - - - - - - -
19/12:30am 14.2 S 3 5 1013.5 - 0.0 - - - - - - -
19/12:00am 14.8 SSW 2 4 1014.0 - 0.0 - - - - - - -
 
Date/Time
WST
Temp

°C
Wind Pressure Rain
since 9am
mm
Weather Cloud Vis
km
Sea
Height
m
Swell
Dir
 
Speed
knots
Gust
knots
hPa Trend Height
m
Period
s
Dir
18/11:30pm 15.3 S 3 4 1010.5 - 0.0 - - - - - - -
18/11:00pm 15.1 S 2 3 1010.9 - 0.0 - - - - - - -
18/10:30pm 15.2 S 2 4 1014.1 - 0.0 - - - - - - -
18/10:00pm 15.8 S 2 3 1010.6 - 0.0 - - - - - - -
18/09:30pm 16.0 S 2 3 1010.7 - 0.0 - - - - - - -
18/09:00pm 16.6 S 4 5 1010.8 - 0.0 - - - - - - -
18/08:30pm 16.9 S 4 6 1013.9 - 0.0 - - - - - - -
18/08:00pm 17.4 S 6 9 1010.1 - 0.0 - - - - - - -
18/07:30pm 17.7 S 6 8 1013.2 - 0.0 - - - - - - -
18/07:00pm 18.1 SSW 7 10 1008.6 - 0.0 - - - - - - -
18/06:30pm 18.6 SSW 10 16 1011.8 - 0.0 - - - - - - -
18/06:00pm 19.1 S 8 12 1008.9 - 0.0 - - - - - - -
18/05:30pm 19.7 SSW 12 20 1008.2 - 0.0 - - - - - - -
18/05:00pm 20.5 SW 11 19 1007.2 - 0.0 - - - - - - -
18/04:30pm 20.6 SW 11 18 1010.8 - 0.0 - - - - - - -
18/04:00pm 20.9 SW 14 23 1007.2 - 0.0 - - - - - - -
18/03:53pm 20.9 SW 15 23 1006.7 - 0.0 - - - - - - -
18/03:30pm 21.7 WSW 8 12 1007.9 - 0.0 - - - - - - -
18/03:00pm 21.4 W 7 12 1007.8 - 0.0 - - - - - - -
18/02:30pm 21.8 WSW 6 9 1004.3 - 0.0 - - - - - - -
18/02:00pm 21.4 WSW 9 13 1004.3 - 0.0 - - - - - - -
18/01:30pm 21.4 W 9 11 1008.3 - 0.0 - - - - - - -
18/01:00pm 22.3 WSW 7 11 1005.7 - 0.0 - - - - - - -
18/12:30pm 22.3 W 7 10 1007.6 - 0.0 - - - - - - -
18/12:00pm 21.8 W 7 12 1007.0 - 0.0 - - - - - - -
18/11:30am 23.0 WSW 8 12 1007.9 - 0.0 - - - - - - -
18/11:00am 23.1 W 6 9 1008.4 - 0.0 - - - - - - -

Other Formats:

Comma delimited format used in spreadsheet applications
http://www.bom.gov.au/fwo/IDW60701/IDW60701.94604.axf

JavaScript Object Notation format (JSON) in row-major order
http://www.bom.gov.au/fwo/IDW60701/IDW60701.94604.json